createdAt,value
2022-12-18T00:00:28.047Z,4.97
2022-12-18T00:01:21.484Z,5.12
2022-12-18T00:01:55.188Z,5.20
2022-12-18T00:02:28.516Z,5.24
2022-12-18T00:03:01.737Z,5.28
2022-12-18T00:03:35.323Z,5.27
2022-12-18T00:04:09.257Z,5.16
2022-12-18T00:04:42.657Z,4.94
2022-12-18T00:05:15.694Z,4.69
2022-12-18T00:05:48.895Z,4.38
2022-12-18T00:06:22.061Z,4.10
2022-12-18T00:06:55.645Z,3.82
2022-12-18T00:07:28.796Z,3.54
2022-12-18T00:08:02.077Z,3.27
2022-12-18T00:08:35.534Z,3.03
2022-12-18T00:09:08.732Z,2.80
2022-12-18T00:09:41.834Z,2.57
2022-12-18T00:10:15.482Z,2.36
2022-12-18T00:10:48.765Z,2.16
2022-12-18T00:11:21.898Z,1.97
2022-12-18T00:11:55.083Z,1.80
2022-12-18T00:12:29.942Z,1.63
2022-12-18T00:13:06.648Z,1.47
2022-12-18T00:13:43.213Z,1.29
2022-12-18T00:14:16.373Z,1.15
2022-12-18T00:14:49.602Z,1.01
2022-12-18T00:15:22.726Z,0.88
2022-12-18T00:15:56.701Z,0.77
2022-12-18T00:16:31.289Z,0.65
2022-12-18T00:17:04.481Z,0.54
2022-12-18T00:17:37.556Z,0.43
2022-12-18T00:18:10.628Z,0.36
2022-12-18T00:18:43.877Z,0.41
2022-12-18T00:19:17.051Z,0.62
2022-12-18T00:19:50.249Z,0.93
2022-12-18T00:20:26.842Z,1.29
2022-12-18T00:21:00.159Z,1.68
2022-12-18T00:21:33.657Z,2.04
2022-12-18T00:22:07.747Z,2.38
2022-12-18T00:22:40.800Z,2.70
2022-12-18T00:23:13.714Z,2.98
2022-12-18T00:23:46.807Z,3.23
2022-12-18T00:24:20.190Z,3.46
2022-12-18T00:24:53.825Z,3.66
2022-12-18T00:25:26.967Z,3.85
2022-12-18T00:26:00.180Z,4.00
2022-12-18T00:26:33.370Z,4.13
2022-12-18T00:27:06.537Z,4.25
2022-12-18T00:27:39.654Z,4.37
2022-12-18T00:28:12.930Z,4.50
2022-12-18T00:28:46.095Z,4.60
2022-12-18T00:29:19.349Z,4.68
2022-12-18T00:29:52.367Z,4.78
2022-12-18T00:30:25.494Z,4.86
2022-12-18T00:30:58.566Z,4.94
2022-12-18T00:31:31.676Z,5.01
2022-12-18T00:32:04.874Z,5.06
2022-12-18T00:32:38.323Z,5.06
2022-12-18T00:33:11.409Z,5.06
2022-12-18T00:33:44.463Z,5.00
2022-12-18T00:34:17.521Z,4.85
2022-12-18T00:34:50.686Z,4.60
2022-12-18T00:35:23.753Z,4.32
2022-12-18T00:35:56.888Z,4.04
2022-12-18T00:36:30.196Z,3.78
2022-12-18T00:37:03.269Z,3.51
2022-12-18T00:37:36.351Z,3.28
2022-12-18T00:38:09.318Z,3.03
2022-12-18T00:38:42.406Z,2.80
2022-12-18T00:39:15.670Z,2.59
2022-12-18T00:39:49.011Z,2.39
2022-12-18T00:40:22.631Z,2.19
2022-12-18T00:40:55.749Z,2.01
2022-12-18T00:41:47.306Z,1.84
2022-12-18T00:42:38.791Z,1.59
2022-12-18T00:43:11.871Z,1.37
2022-12-18T00:43:44.945Z,1.23
2022-12-18T00:44:18.409Z,1.10
2022-12-18T00:44:51.823Z,0.97
2022-12-18T00:45:25.056Z,0.85
2022-12-18T00:45:58.280Z,0.72
2022-12-18T00:46:31.462Z,0.61
2022-12-18T00:47:04.828Z,0.50
2022-12-18T00:47:38.072Z,0.39
2022-12-18T00:48:11.674Z,0.30
2022-12-18T00:48:44.908Z,0.20
2022-12-18T00:49:19.048Z,0.10
2022-12-18T00:49:53.054Z,0.01
2022-12-18T00:50:26.287Z,-0.08
2022-12-18T00:50:59.311Z,-0.16
2022-12-18T00:51:32.348Z,-0.24
2022-12-18T00:52:05.831Z,-0.31
2022-12-18T00:52:38.956Z,-0.38
2022-12-18T00:53:12.176Z,-0.46
2022-12-18T00:53:45.312Z,-0.52
2022-12-18T00:54:18.818Z,-0.59
2022-12-18T00:54:51.872Z,-0.65
2022-12-18T00:55:25.016Z,-0.71
2022-12-18T00:55:58.490Z,-0.77
2022-12-18T00:56:31.708Z,-0.77
2022-12-18T00:57:04.759Z,-0.65
2022-12-18T00:57:37.867Z,-0.35
2022-12-18T00:58:11.630Z,0.07
2022-12-18T00:58:44.685Z,0.53
2022-12-18T00:59:17.863Z,1.01
2022-12-18T00:59:50.934Z,1.46
2022-12-18T01:00:24.032Z,1.89
2022-12-18T01:00:57.259Z,2.27
2022-12-18T01:01:30.783Z,2.62
2022-12-18T01:02:04.002Z,2.94
2022-12-18T01:02:37.241Z,3.23
2022-12-18T01:03:10.434Z,3.48
2022-12-18T01:03:43.755Z,3.70
2022-12-18T01:04:16.752Z,3.91
2022-12-18T01:04:49.831Z,4.10
2022-12-18T01:05:22.809Z,4.27
2022-12-18T01:05:55.762Z,4.42
2022-12-18T01:06:29.150Z,4.58
2022-12-18T01:07:02.358Z,4.73
2022-12-18T01:07:35.558Z,4.84
2022-12-18T01:08:08.746Z,4.95
2022-12-18T01:08:42.175Z,5.08
2022-12-18T01:09:15.293Z,5.21
2022-12-18T01:09:48.685Z,5.35
2022-12-18T01:10:21.732Z,5.46
2022-12-18T01:10:54.870Z,5.59
2022-12-18T01:11:27.980Z,5.71
2022-12-18T01:12:01.196Z,5.81
2022-12-18T01:12:34.241Z,5.91
2022-12-18T01:13:07.330Z,5.99
2022-12-18T01:13:40.902Z,6.06
2022-12-18T01:14:14.361Z,6.14
2022-12-18T01:14:47.652Z,6.22
2022-12-18T01:15:20.892Z,6.29
2022-12-18T01:15:53.994Z,6.33
2022-12-18T01:16:28.126Z,6.35
2022-12-18T01:17:03.844Z,6.36
2022-12-18T01:17:36.918Z,6.39
2022-12-18T01:18:09.924Z,6.40
2022-12-18T01:18:43.080Z,6.37
2022-12-18T01:19:16.264Z,6.29
2022-12-18T01:19:49.484Z,6.11
2022-12-18T01:20:22.761Z,5.86
2022-12-18T01:20:55.699Z,5.56
2022-12-18T01:21:28.874Z,5.25
2022-12-18T01:22:01.894Z,4.94
2022-12-18T01:22:35.091Z,4.63
2022-12-18T01:23:08.163Z,4.33
2022-12-18T01:23:41.601Z,4.04
2022-12-18T01:24:14.904Z,3.78
2022-12-18T01:24:48.259Z,3.51
2022-12-18T01:25:21.766Z,3.27
2022-12-18T01:25:54.781Z,3.04
2022-12-18T01:26:30.781Z,2.84
2022-12-18T01:27:03.966Z,2.61
2022-12-18T01:27:37.177Z,2.41
2022-12-18T01:28:10.125Z,2.23
2022-12-18T01:28:43.420Z,2.06
2022-12-18T01:29:16.502Z,1.90
2022-12-18T01:29:49.723Z,1.73
2022-12-18T01:30:22.881Z,1.58
2022-12-18T01:30:56.180Z,1.43
2022-12-18T01:31:29.434Z,1.29
2022-12-18T01:32:02.616Z,1.15
2022-12-18T01:32:36.071Z,1.02
2022-12-18T01:33:09.051Z,0.89
2022-12-18T01:33:42.138Z,0.77
2022-12-18T01:34:15.495Z,0.65
2022-12-18T01:34:48.790Z,0.53
2022-12-18T01:35:21.822Z,0.42
2022-12-18T01:35:54.964Z,0.32
2022-12-18T01:36:28.031Z,0.21
2022-12-18T01:37:01.602Z,0.11
2022-12-18T01:37:34.527Z,0.01
2022-12-18T01:38:07.639Z,-0.08
2022-12-18T01:38:40.644Z,-0.17
2022-12-18T01:39:13.758Z,-0.25
2022-12-18T01:39:46.905Z,-0.33
2022-12-18T01:40:20.061Z,-0.41
2022-12-18T01:40:53.060Z,-0.50
2022-12-18T01:41:26.204Z,-0.56
2022-12-18T01:42:05.665Z,-0.63
2022-12-18T01:42:38.754Z,-0.71
2022-12-18T01:43:12.029Z,-0.78
2022-12-18T01:43:44.968Z,-0.85
2022-12-18T01:44:18.203Z,-0.91
2022-12-18T01:44:51.355Z,-0.96
2022-12-18T01:45:24.685Z,-1.02
2022-12-18T01:45:57.677Z,-1.08
2022-12-18T01:46:30.777Z,-1.13
2022-12-18T01:47:04.200Z,-1.19
2022-12-18T01:47:37.397Z,-1.24
2022-12-18T01:48:10.527Z,-1.29
2022-12-18T01:48:43.628Z,-1.35
2022-12-18T01:49:16.764Z,-1.38
2022-12-18T01:49:49.786Z,-1.40
2022-12-18T01:50:22.867Z,-1.29
2022-12-18T01:50:55.850Z,-1.03
2022-12-18T01:51:28.904Z,-0.66
2022-12-18T01:52:01.954Z,-0.23
2022-12-18T01:52:35.007Z,0.22
2022-12-18T01:53:08.086Z,0.63
2022-12-18T01:53:41.188Z,1.03
2022-12-18T01:54:14.338Z,1.39
2022-12-18T01:54:47.618Z,1.72
2022-12-18T01:55:20.644Z,2.01
2022-12-18T01:55:53.588Z,2.25
2022-12-18T01:56:26.589Z,2.49
2022-12-18T01:56:59.607Z,2.74
2022-12-18T01:57:32.707Z,2.98
2022-12-18T01:58:05.884Z,3.21
2022-12-18T01:58:39.029Z,3.40
2022-12-18T01:59:11.977Z,3.56
2022-12-18T01:59:44.949Z,3.70
2022-12-18T02:00:17.972Z,3.82
2022-12-18T02:00:51.240Z,3.96
2022-12-18T02:01:24.323Z,4.10
2022-12-18T02:01:57.477Z,4.20
2022-12-18T02:02:30.869Z,4.28
2022-12-18T02:03:04.119Z,4.36
2022-12-18T02:03:37.603Z,4.43
2022-12-18T02:04:10.903Z,4.49
2022-12-18T02:04:49.207Z,4.55
2022-12-18T02:05:22.686Z,4.60
2022-12-18T02:05:56.813Z,4.66
2022-12-18T02:06:29.951Z,4.73
2022-12-18T02:07:03.010Z,4.80
2022-12-18T02:07:35.951Z,4.88
2022-12-18T02:08:08.807Z,4.93
2022-12-18T02:08:41.883Z,4.99
2022-12-18T02:09:14.788Z,5.05
2022-12-18T02:09:47.675Z,5.10
2022-12-18T02:10:20.843Z,5.15
2022-12-18T02:10:53.926Z,5.20
2022-12-18T02:11:27.042Z,5.23
2022-12-18T02:12:00.048Z,5.27
2022-12-18T02:12:33.051Z,5.31
2022-12-18T02:13:06.064Z,5.36
2022-12-18T02:13:39.478Z,5.41
2022-12-18T02:14:12.700Z,5.46
2022-12-18T02:14:45.584Z,5.52
2022-12-18T02:15:18.658Z,5.58
2022-12-18T02:15:51.700Z,5.57
2022-12-18T02:16:24.864Z,5.45
2022-12-18T02:16:58.459Z,5.26
2022-12-18T02:17:31.453Z,5.00
2022-12-18T02:18:04.502Z,4.71
2022-12-18T02:18:37.690Z,4.41
2022-12-18T02:19:10.683Z,4.11
2022-12-18T02:19:43.772Z,3.83
2022-12-18T02:20:16.701Z,3.55
2022-12-18T02:20:49.842Z,3.29
2022-12-18T02:21:22.851Z,3.03
2022-12-18T02:21:55.844Z,2.79
2022-12-18T02:22:28.956Z,2.58
2022-12-18T02:23:01.976Z,2.37
2022-12-18T02:23:35.082Z,2.16
2022-12-18T02:24:08.338Z,1.97
2022-12-18T02:24:41.279Z,1.77
2022-12-18T02:25:14.271Z,1.59
2022-12-18T02:25:47.321Z,1.43
2022-12-18T02:26:20.351Z,1.27
2022-12-18T02:26:53.290Z,1.12
2022-12-18T02:27:26.220Z,0.96
2022-12-18T02:27:59.264Z,0.82
2022-12-18T02:28:32.285Z,0.68
2022-12-18T02:29:05.362Z,0.55
2022-12-18T02:29:38.412Z,0.42
2022-12-18T02:30:11.402Z,0.30
2022-12-18T02:30:44.358Z,0.18
2022-12-18T02:31:17.533Z,0.07
2022-12-18T02:31:50.632Z,-0.05
2022-12-18T02:32:23.825Z,-0.15
2022-12-18T02:32:56.924Z,-0.26
2022-12-18T02:33:30.022Z,-0.35
2022-12-18T02:34:03.184Z,-0.45
2022-12-18T02:34:36.370Z,-0.54
2022-12-18T02:35:09.405Z,-0.63
2022-12-18T02:35:42.441Z,-0.72
2022-12-18T02:36:16.142Z,-0.79
2022-12-18T02:36:49.183Z,-0.86
2022-12-18T02:37:22.417Z,-0.86
2022-12-18T02:37:55.511Z,-0.73
2022-12-18T02:38:28.699Z,-0.47
2022-12-18T02:39:01.786Z,-0.16
2022-12-18T02:39:34.644Z,0.19
2022-12-18T02:40:07.560Z,0.54
2022-12-18T02:40:40.617Z,0.89
2022-12-18T02:41:13.513Z,1.24
2022-12-18T02:41:46.459Z,1.55
2022-12-18T02:42:19.474Z,1.84
2022-12-18T02:42:52.524Z,2.12
2022-12-18T02:43:25.392Z,2.38
2022-12-18T02:43:58.472Z,2.60
2022-12-18T02:44:31.483Z,2.81
2022-12-18T02:45:04.589Z,3.00
2022-12-18T02:45:37.596Z,3.15
2022-12-18T02:46:10.704Z,3.28
2022-12-18T02:46:43.615Z,3.40
2022-12-18T02:47:16.766Z,3.51
2022-12-18T02:47:49.758Z,3.57
2022-12-18T02:48:22.724Z,3.60
2022-12-18T02:48:55.723Z,3.69
2022-12-18T02:49:29.374Z,3.78
2022-12-18T02:50:03.513Z,3.89
2022-12-18T02:50:36.475Z,4.03
2022-12-18T02:51:09.515Z,4.17
2022-12-18T02:51:42.465Z,4.30
2022-12-18T02:52:15.425Z,4.43
2022-12-18T02:52:48.287Z,4.55
2022-12-18T02:53:21.104Z,4.63
2022-12-18T02:53:54.284Z,4.72
2022-12-18T02:54:27.509Z,4.80
2022-12-18T02:55:00.635Z,4.88
2022-12-18T02:55:33.947Z,4.96
2022-12-18T02:56:06.932Z,5.03
2022-12-18T02:56:39.995Z,5.05
2022-12-18T02:57:13.192Z,5.10
2022-12-18T02:57:46.196Z,5.15
2022-12-18T02:58:19.388Z,5.20
2022-12-18T02:58:52.379Z,5.25
2022-12-18T02:59:25.400Z,5.30
2022-12-18T02:59:58.522Z,5.30
2022-12-18T03:00:31.863Z,5.21
2022-12-18T03:01:05.249Z,5.03
2022-12-18T03:01:38.426Z,4.79
2022-12-18T03:02:11.585Z,4.52
2022-12-18T03:02:45.492Z,4.22
2022-12-18T03:03:18.916Z,3.93
2022-12-18T03:03:53.235Z,3.63
2022-12-18T03:04:26.398Z,3.35
2022-12-18T03:04:59.330Z,3.09
2022-12-18T03:05:32.523Z,2.84
2022-12-18T03:06:05.527Z,2.59
2022-12-18T03:06:38.531Z,2.37
2022-12-18T03:07:11.556Z,2.16
2022-12-18T03:07:44.540Z,1.96
2022-12-18T03:08:17.738Z,1.77
2022-12-18T03:08:50.709Z,1.59
2022-12-18T03:09:23.851Z,1.43
2022-12-18T03:09:56.878Z,1.26
2022-12-18T03:10:29.781Z,1.11
2022-12-18T03:11:02.780Z,0.96
2022-12-18T03:11:56.176Z,0.82
2022-12-18T03:12:29.247Z,0.60
2022-12-18T03:13:02.430Z,0.48
2022-12-18T03:13:35.600Z,0.35
2022-12-18T03:14:08.778Z,0.23
2022-12-18T03:14:41.954Z,0.12
2022-12-18T03:15:17.840Z,0.00
2022-12-18T03:15:51.169Z,-0.11
2022-12-18T03:16:24.235Z,-0.22
2022-12-18T03:16:57.631Z,-0.32
2022-12-18T03:17:30.758Z,-0.41
2022-12-18T03:18:03.852Z,-0.52
2022-12-18T03:18:36.946Z,-0.61
2022-12-18T03:19:10.232Z,-0.71
2022-12-18T03:19:43.294Z,-0.80
2022-12-18T03:20:16.259Z,-0.88
2022-12-18T03:20:49.267Z,-0.96
2022-12-18T03:21:22.403Z,-1.05
2022-12-18T03:21:55.593Z,-1.13
2022-12-18T03:22:28.741Z,-1.20
2022-12-18T03:23:01.842Z,-1.27
2022-12-18T03:23:35.304Z,-1.34
2022-12-18T03:24:08.262Z,-1.41
2022-12-18T03:24:41.534Z,-1.47
2022-12-18T03:25:14.640Z,-1.53
2022-12-18T03:25:47.740Z,-1.59
2022-12-18T03:26:20.703Z,-1.65
2022-12-18T03:26:53.980Z,-1.71
2022-12-18T03:27:27.421Z,-1.75
2022-12-18T03:28:01.067Z,-1.76
2022-12-18T03:28:34.280Z,-1.61
2022-12-18T03:29:07.471Z,-1.33
2022-12-18T03:29:40.899Z,-0.95
2022-12-18T03:30:14.052Z,-0.54
2022-12-18T03:30:47.183Z,-0.13
2022-12-18T03:31:20.485Z,0.28
2022-12-18T03:31:53.618Z,0.65
2022-12-18T03:32:26.672Z,0.98
2022-12-18T03:33:00.553Z,1.29
2022-12-18T03:33:33.967Z,1.58
2022-12-18T03:34:06.936Z,1.83
2022-12-18T03:34:40.027Z,2.07
2022-12-18T03:35:13.327Z,2.27
2022-12-18T03:35:46.233Z,2.45
2022-12-18T03:36:19.433Z,2.64
2022-12-18T03:36:52.327Z,2.81
2022-12-18T03:37:25.728Z,2.97
2022-12-18T03:37:58.754Z,3.11
2022-12-18T03:38:31.795Z,3.24
2022-12-18T03:39:04.687Z,3.35
2022-12-18T03:39:37.555Z,3.46
2022-12-18T03:40:10.623Z,3.57
2022-12-18T03:40:44.150Z,3.68
2022-12-18T03:41:17.470Z,3.77
2022-12-18T03:41:50.892Z,3.87
2022-12-18T03:42:24.145Z,3.95
2022-12-18T03:42:57.246Z,3.99
2022-12-18T03:43:30.228Z,4.05
2022-12-18T03:44:03.366Z,4.10
2022-12-18T03:44:36.516Z,4.16
2022-12-18T03:45:09.459Z,4.22
2022-12-18T03:45:42.591Z,4.27
2022-12-18T03:46:15.734Z,4.33
2022-12-18T03:46:48.777Z,4.39
2022-12-18T03:47:21.797Z,4.46
2022-12-18T03:47:54.834Z,4.54
2022-12-18T03:48:28.036Z,4.63
2022-12-18T03:49:01.253Z,4.71
2022-12-18T03:49:34.343Z,4.78
2022-12-18T03:50:12.496Z,4.85
2022-12-18T03:50:45.751Z,4.93
2022-12-18T03:51:18.818Z,4.97
2022-12-18T03:51:51.864Z,4.97
2022-12-18T03:52:24.890Z,4.84
2022-12-18T03:52:58.205Z,4.66
2022-12-18T03:53:31.369Z,4.42
2022-12-18T03:54:04.350Z,4.15
2022-12-18T03:54:37.316Z,3.88
2022-12-18T03:55:10.146Z,3.59
2022-12-18T03:55:43.193Z,3.32
2022-12-18T03:56:16.360Z,3.04
2022-12-18T03:56:49.383Z,2.80
2022-12-18T03:57:22.464Z,2.56
2022-12-18T03:57:55.447Z,2.34
2022-12-18T03:58:28.406Z,2.13
2022-12-18T03:59:01.826Z,1.93
2022-12-18T03:59:35.142Z,1.73
2022-12-18T04:00:08.272Z,1.56
2022-12-18T04:00:41.441Z,1.39
2022-12-18T04:01:14.779Z,1.22
2022-12-18T04:01:48.118Z,1.06
2022-12-18T04:02:21.208Z,0.92
2022-12-18T04:02:54.242Z,0.78
2022-12-18T04:03:27.452Z,0.66
2022-12-18T04:04:00.488Z,0.54
2022-12-18T04:04:33.594Z,0.43
2022-12-18T04:05:06.536Z,0.32
2022-12-18T04:05:39.539Z,0.22
2022-12-18T04:06:12.442Z,0.12
2022-12-18T04:06:45.631Z,0.02
2022-12-18T04:07:18.596Z,-0.07
2022-12-18T04:07:51.733Z,-0.17
2022-12-18T04:08:24.621Z,-0.26
2022-12-18T04:08:57.629Z,-0.35
2022-12-18T04:09:30.708Z,-0.43
2022-12-18T04:10:04.204Z,-0.51
2022-12-18T04:10:37.276Z,-0.60
2022-12-18T04:11:10.452Z,-0.67
2022-12-18T04:11:45.073Z,-0.74
2022-12-18T04:12:18.481Z,-0.81
2022-12-18T04:12:51.627Z,-0.89
2022-12-18T04:13:24.541Z,-0.96
2022-12-18T04:13:58.551Z,-1.02
2022-12-18T04:14:31.681Z,-1.08
2022-12-18T04:15:04.723Z,-1.15
2022-12-18T04:15:37.825Z,-1.21
2022-12-18T04:16:10.907Z,-1.27
2022-12-18T04:16:43.938Z,-1.32
2022-12-18T04:17:17.414Z,-1.37
2022-12-18T04:17:50.506Z,-1.42
2022-12-18T04:18:23.496Z,-1.45
2022-12-18T04:18:56.613Z,-1.41
2022-12-18T04:19:29.655Z,-1.24
2022-12-18T04:20:02.650Z,-0.97
2022-12-18T04:20:35.773Z,-0.62
2022-12-18T04:21:08.919Z,-0.22
2022-12-18T04:21:41.964Z,0.16
2022-12-18T04:22:14.996Z,0.52
2022-12-18T04:22:48.106Z,0.87
2022-12-18T04:23:21.093Z,1.20
2022-12-18T04:23:54.132Z,1.51
2022-12-18T04:24:27.756Z,1.77
2022-12-18T04:25:01.487Z,1.97
2022-12-18T04:25:34.678Z,2.13
2022-12-18T04:26:07.807Z,2.25
2022-12-18T04:26:40.959Z,2.35
2022-12-18T04:27:14.158Z,2.42
2022-12-18T04:27:47.365Z,2.49
2022-12-18T04:28:20.486Z,2.54
2022-12-18T04:28:54.132Z,2.59
2022-12-18T04:29:27.360Z,2.65
2022-12-18T04:30:00.647Z,2.69
2022-12-18T04:30:34.018Z,2.74
2022-12-18T04:31:07.536Z,2.77
2022-12-18T04:31:40.871Z,2.78
2022-12-18T04:32:14.124Z,2.79
2022-12-18T04:32:52.008Z,2.80
2022-12-18T04:33:25.424Z,2.90
2022-12-18T04:33:58.561Z,3.07
2022-12-18T04:34:31.799Z,3.27
2022-12-18T04:35:05.447Z,3.49
2022-12-18T04:35:38.391Z,3.70
2022-12-18T04:36:13.515Z,3.88
2022-12-18T04:36:46.594Z,4.07
2022-12-18T04:37:19.568Z,4.22
2022-12-18T04:37:52.588Z,4.35
2022-12-18T04:38:25.772Z,4.48
2022-12-18T04:38:58.762Z,4.59
2022-12-18T04:39:31.847Z,4.69
2022-12-18T04:40:04.862Z,4.76
2022-12-18T04:40:37.865Z,4.79
2022-12-18T04:41:10.816Z,4.80
2022-12-18T04:41:43.675Z,4.81
2022-12-18T04:42:16.755Z,4.82
2022-12-18T04:42:49.810Z,4.80
2022-12-18T04:43:22.949Z,4.72
2022-12-18T04:43:56.120Z,4.67
2022-12-18T04:44:29.412Z,4.53
2022-12-18T04:45:02.641Z,4.32
2022-12-18T04:45:35.802Z,4.07
2022-12-18T04:46:09.049Z,3.79
2022-12-18T04:46:42.169Z,3.53
2022-12-18T04:47:15.299Z,3.27
2022-12-18T04:47:48.543Z,3.02
2022-12-18T04:48:21.573Z,2.79
2022-12-18T04:48:54.725Z,2.57
2022-12-18T04:49:28.006Z,2.36
2022-12-18T04:50:01.337Z,2.16
2022-12-18T04:50:34.502Z,1.96
2022-12-18T04:51:07.878Z,1.79
2022-12-18T04:51:40.918Z,1.62
2022-12-18T04:52:13.804Z,1.46
2022-12-18T04:52:46.774Z,1.30
2022-12-18T04:53:20.008Z,1.14
2022-12-18T04:53:53.168Z,1.00
2022-12-18T04:54:26.863Z,0.86
2022-12-18T04:55:00.027Z,0.72
2022-12-18T04:55:33.201Z,0.60
2022-12-18T04:56:06.197Z,0.49
2022-12-18T04:56:39.252Z,0.36
2022-12-18T04:57:12.214Z,0.26
2022-12-18T04:57:45.271Z,0.15
2022-12-18T04:58:18.352Z,0.04
2022-12-18T04:58:51.471Z,-0.06
2022-12-18T04:59:24.578Z,-0.15
2022-12-18T04:59:57.665Z,-0.25
2022-12-18T05:00:30.687Z,-0.34
2022-12-18T05:01:04.115Z,-0.43
2022-12-18T05:01:37.324Z,-0.52
2022-12-18T05:02:10.463Z,-0.61
2022-12-18T05:02:43.775Z,-0.68
2022-12-18T05:03:17.219Z,-0.76
2022-12-18T05:03:50.334Z,-0.83
2022-12-18T05:04:23.247Z,-0.90
2022-12-18T05:04:56.266Z,-0.97
2022-12-18T05:05:29.238Z,-1.04
2022-12-18T05:06:02.172Z,-1.10
2022-12-18T05:06:35.251Z,-1.16
2022-12-18T05:07:08.296Z,-1.22
2022-12-18T05:07:41.128Z,-1.28
2022-12-18T05:08:14.542Z,-1.33
2022-12-18T05:08:47.809Z,-1.38
2022-12-18T05:09:20.896Z,-1.41
2022-12-18T05:09:53.857Z,-1.36
2022-12-18T05:10:26.771Z,-1.15
2022-12-18T05:10:59.925Z,-0.81
2022-12-18T05:11:33.015Z,-0.41
2022-12-18T05:12:06.043Z,-0.01
2022-12-18T05:13:00.058Z,0.36
2022-12-18T05:13:34.367Z,0.95
2022-12-18T05:14:07.485Z,1.30
2022-12-18T05:14:40.417Z,1.60
2022-12-18T05:15:13.357Z,1.85
2022-12-18T05:15:46.442Z,2.06
2022-12-18T05:16:19.465Z,2.21
2022-12-18T05:16:55.723Z,2.34
2022-12-18T05:17:31.005Z,2.47
2022-12-18T05:18:04.152Z,2.56
2022-12-18T05:18:37.212Z,2.64
2022-12-18T05:19:10.294Z,2.71
2022-12-18T05:19:43.576Z,2.75
2022-12-18T05:20:16.614Z,2.83
2022-12-18T05:20:49.797Z,2.90
2022-12-18T05:21:22.782Z,2.96
2022-12-18T05:21:55.931Z,2.99
2022-12-18T05:22:28.994Z,2.98
2022-12-18T05:23:02.259Z,2.97
2022-12-18T05:23:36.048Z,2.97
2022-12-18T05:24:09.373Z,2.96
2022-12-18T05:24:42.425Z,2.93
2022-12-18T05:25:15.369Z,2.94
2022-12-18T05:25:48.409Z,3.03
2022-12-18T05:26:21.586Z,3.18
2022-12-18T05:26:54.567Z,3.34
2022-12-18T05:27:27.659Z,3.45
2022-12-18T05:28:00.840Z,3.49
2022-12-18T05:28:33.850Z,3.45
2022-12-18T05:29:06.769Z,3.47
2022-12-18T05:29:39.748Z,3.53
2022-12-18T05:30:12.823Z,3.64
2022-12-18T05:30:46.102Z,3.76
2022-12-18T05:31:19.283Z,3.82
2022-12-18T05:31:52.442Z,3.81
2022-12-18T05:32:25.711Z,3.75
2022-12-18T05:32:59.022Z,3.61
2022-12-18T05:33:32.141Z,3.42
2022-12-18T05:34:05.502Z,3.22
2022-12-18T05:34:38.811Z,2.98
2022-12-18T05:35:11.863Z,2.75
2022-12-18T05:35:44.796Z,2.52
2022-12-18T05:36:17.969Z,2.30
2022-12-18T05:36:51.432Z,2.09
2022-12-18T05:37:24.459Z,1.88
2022-12-18T05:37:57.441Z,1.70
2022-12-18T05:38:30.728Z,1.53
2022-12-18T05:39:04.002Z,1.36
2022-12-18T05:39:37.496Z,1.20
2022-12-18T05:40:10.481Z,1.06
2022-12-18T05:40:43.899Z,0.92
2022-12-18T05:41:17.346Z,0.78
2022-12-18T05:41:50.473Z,0.66
2022-12-18T05:42:23.495Z,0.53
2022-12-18T05:42:56.606Z,0.42
2022-12-18T05:43:30.108Z,0.31
2022-12-18T05:44:03.321Z,0.20
2022-12-18T05:44:36.387Z,0.09
2022-12-18T05:45:09.353Z,-0.01
2022-12-18T05:45:42.503Z,-0.10
2022-12-18T05:46:15.931Z,-0.20
2022-12-18T05:46:49.154Z,-0.29
2022-12-18T05:47:22.190Z,-0.38
2022-12-18T05:47:55.155Z,-0.47
2022-12-18T05:48:29.084Z,-0.57
2022-12-18T05:49:05.135Z,-0.64
2022-12-18T05:49:38.302Z,-0.73
2022-12-18T05:50:11.433Z,-0.80
2022-12-18T05:50:48.904Z,-0.84
2022-12-18T05:51:22.175Z,-0.79
2022-12-18T05:51:55.367Z,-0.67
2022-12-18T05:52:28.475Z,-0.51
2022-12-18T05:53:01.711Z,-0.25
2022-12-18T05:53:34.796Z,0.06
2022-12-18T05:54:07.781Z,0.43
2022-12-18T05:54:40.999Z,0.80
2022-12-18T05:55:14.077Z,1.15
2022-12-18T05:55:47.254Z,1.50
2022-12-18T05:56:20.284Z,1.80
2022-12-18T05:56:53.733Z,2.08
2022-12-18T05:57:26.661Z,2.33
2022-12-18T05:58:00.292Z,2.54
2022-12-18T05:58:33.404Z,2.71
2022-12-18T05:59:06.597Z,2.80
2022-12-18T05:59:39.575Z,2.89
2022-12-18T06:00:12.511Z,2.94
2022-12-18T06:00:45.525Z,3.03
2022-12-18T06:01:18.679Z,3.12
2022-12-18T06:01:51.871Z,3.22
2022-12-18T06:02:25.201Z,3.31
2022-12-18T06:02:58.587Z,3.44
2022-12-18T06:03:34.054Z,3.54
2022-12-18T06:04:07.421Z,3.65
2022-12-18T06:04:40.477Z,3.77
2022-12-18T06:05:13.588Z,3.90
2022-12-18T06:05:46.709Z,4.01
2022-12-18T06:06:19.893Z,4.14
2022-12-18T06:06:53.112Z,4.22
2022-12-18T06:07:26.207Z,4.28
2022-12-18T06:07:59.504Z,4.33
2022-12-18T06:08:32.820Z,4.19
2022-12-18T06:09:10.847Z,3.99
2022-12-18T06:09:43.959Z,3.73
2022-12-18T06:10:17.014Z,3.47
2022-12-18T06:10:50.212Z,3.20
2022-12-18T06:11:23.216Z,2.92
2022-12-18T06:11:56.357Z,2.67
2022-12-18T06:12:29.638Z,2.42
2022-12-18T06:13:02.954Z,2.18
2022-12-18T06:13:35.946Z,1.96
2022-12-18T06:14:09.142Z,1.75
2022-12-18T06:14:42.116Z,1.55
2022-12-18T06:15:15.128Z,1.37
2022-12-18T06:15:49.284Z,1.18
2022-12-18T06:16:22.520Z,1.01
2022-12-18T06:16:55.599Z,0.86
2022-12-18T06:17:28.680Z,0.71
2022-12-18T06:18:01.854Z,0.58
2022-12-18T06:18:35.034Z,0.45
2022-12-18T06:19:08.260Z,0.32
2022-12-18T06:19:48.886Z,0.18
2022-12-18T06:20:22.323Z,0.07
2022-12-18T06:20:55.448Z,-0.04
2022-12-18T06:21:28.534Z,-0.15
2022-12-18T06:22:01.586Z,-0.24
2022-12-18T06:22:34.858Z,-0.33
2022-12-18T06:23:07.981Z,-0.41
2022-12-18T06:23:41.232Z,-0.50
2022-12-18T06:24:14.605Z,-0.58
2022-12-18T06:24:47.712Z,-0.66
2022-12-18T06:25:20.808Z,-0.73
2022-12-18T06:25:53.944Z,-0.81
2022-12-18T06:26:28.545Z,-0.87
2022-12-18T06:27:01.859Z,-0.95
2022-12-18T06:27:37.864Z,-1.01
2022-12-18T06:28:11.301Z,-1.09
2022-12-18T06:28:44.230Z,-1.14
2022-12-18T06:29:17.329Z,-1.21
2022-12-18T06:29:50.472Z,-1.27
2022-12-18T06:30:23.605Z,-1.32
2022-12-18T06:30:56.852Z,-1.37
2022-12-18T06:31:30.078Z,-1.43
2022-12-18T06:32:04.052Z,-1.49
2022-12-18T06:32:37.206Z,-1.53
2022-12-18T06:33:10.252Z,-1.58
2022-12-18T06:33:43.572Z,-1.63
2022-12-18T06:34:16.773Z,-1.66
2022-12-18T06:34:49.872Z,-1.66
2022-12-18T06:35:23.014Z,-1.55
2022-12-18T06:36:00.930Z,-1.34
2022-12-18T06:36:34.544Z,-0.99
2022-12-18T06:37:07.787Z,-0.64
2022-12-18T06:37:41.065Z,-0.25
2022-12-18T06:38:14.177Z,0.12
2022-12-18T06:38:47.207Z,0.50
2022-12-18T06:39:20.399Z,0.86
2022-12-18T06:39:53.534Z,1.22
2022-12-18T06:40:26.640Z,1.54
2022-12-18T06:40:59.762Z,1.82
2022-12-18T06:41:32.997Z,2.10
2022-12-18T06:42:06.041Z,2.34
2022-12-18T06:42:39.211Z,2.55
2022-12-18T06:43:12.332Z,2.76
2022-12-18T06:43:45.533Z,2.97
2022-12-18T06:44:18.699Z,3.17
2022-12-18T06:44:51.764Z,3.33
2022-12-18T06:45:25.487Z,3.49
2022-12-18T06:45:58.789Z,3.64
2022-12-18T06:46:33.386Z,3.78
2022-12-18T06:47:06.390Z,3.88
2022-12-18T06:47:39.407Z,3.96
2022-12-18T06:48:12.329Z,3.96
2022-12-18T06:48:45.244Z,4.00
2022-12-18T06:49:18.503Z,4.03
2022-12-18T06:49:51.662Z,4.07
2022-12-18T06:50:24.728Z,4.14
2022-12-18T06:50:58.020Z,4.24
2022-12-18T06:51:31.161Z,4.35
2022-12-18T06:52:04.209Z,4.47
2022-12-18T06:52:38.027Z,4.59
2022-12-18T06:53:11.161Z,4.69
2022-12-18T06:53:44.212Z,4.77
2022-12-18T06:54:17.202Z,4.83
2022-12-18T06:54:50.322Z,4.88
2022-12-18T06:55:23.298Z,4.80
2022-12-18T06:55:56.215Z,4.60
2022-12-18T06:56:29.365Z,4.35
2022-12-18T06:57:02.496Z,4.07
2022-12-18T06:57:35.612Z,3.80
2022-12-18T06:58:08.511Z,3.52
2022-12-18T06:58:43.705Z,3.22
2022-12-18T06:59:16.908Z,2.94
2022-12-18T06:59:49.974Z,2.68
2022-12-18T07:00:23.056Z,2.46
2022-12-18T07:00:56.117Z,2.24
2022-12-18T07:01:29.411Z,2.03
2022-12-18T07:02:02.784Z,1.83
2022-12-18T07:02:36.351Z,1.65
2022-12-18T07:03:09.644Z,1.48
2022-12-18T07:03:43.358Z,1.32
2022-12-18T07:04:16.988Z,1.15
2022-12-18T07:04:50.133Z,1.00
2022-12-18T07:05:23.511Z,0.88
2022-12-18T07:05:56.806Z,0.74
2022-12-18T07:06:30.265Z,0.62
2022-12-18T07:07:03.280Z,0.49
2022-12-18T07:07:36.257Z,0.38
2022-12-18T07:08:09.428Z,0.26
2022-12-18T07:08:43.413Z,0.15
2022-12-18T07:09:16.600Z,0.03
2022-12-18T07:09:50.565Z,-0.08
2022-12-18T07:10:23.525Z,-0.18
2022-12-18T07:10:56.693Z,-0.28
2022-12-18T07:11:29.706Z,-0.38
2022-12-18T07:12:02.739Z,-0.47
2022-12-18T07:12:35.745Z,-0.56
2022-12-18T07:13:09.111Z,-0.65
2022-12-18T07:13:42.375Z,-0.73
2022-12-18T07:14:15.721Z,-0.80
2022-12-18T07:14:48.801Z,-0.88
2022-12-18T07:15:21.819Z,-0.95
2022-12-18T07:15:55.152Z,-1.03
2022-12-18T07:16:29.883Z,-1.10
2022-12-18T07:17:02.986Z,-1.17
2022-12-18T07:17:36.347Z,-1.23
2022-12-18T07:18:09.470Z,-1.28
2022-12-18T07:18:42.639Z,-1.33
2022-12-18T07:19:15.865Z,-1.38
2022-12-18T07:19:49.090Z,-1.42
2022-12-18T07:20:22.282Z,-1.48
2022-12-18T07:20:55.468Z,-1.52